sensor_id;sensor_type;location;lat;lon;timestamp;P1;durP1;ratioP1;P2;durP2;ratioP2
21878;SDS011;27908;42.708;23.278;2023-02-18T00:01:51;28.20;;;13.00;;
21878;SDS011;27908;42.708;23.278;2023-02-18T00:04:17;31.25;;;12.55;;
21878;SDS011;27908;42.708;23.278;2023-02-18T00:06:42;40.03;;;13.77;;
21878;SDS011;27908;42.708;23.278;2023-02-18T00:09:09;38.08;;;15.55;;
21878;SDS011;27908;42.708;23.278;2023-02-18T00:11:35;31.80;;;12.87;;
21878;SDS011;27908;42.708;23.278;2023-02-18T00:14:02;30.40;;;13.15;;
21878;SDS011;27908;42.708;23.278;2023-02-18T00:16:29;33.80;;;13.70;;
21878;SDS011;27908;42.708;23.278;2023-02-18T00:18:55;32.25;;;13.35;;
21878;SDS011;27908;42.708;23.278;2023-02-18T00:21:22;30.67;;;11.52;;
21878;SDS011;27908;42.708;23.278;2023-02-18T00:23:47;30.97;;;12.93;;
21878;SDS011;27908;42.708;23.278;2023-02-18T00:26:14;28.73;;;12.20;;
21878;SDS011;27908;42.708;23.278;2023-02-18T00:28:41;28.23;;;12.10;;
21878;SDS011;27908;42.708;23.278;2023-02-18T00:31:08;31.40;;;12.25;;
21878;SDS011;27908;42.708;23.278;2023-02-18T00:33:40;31.00;;;11.90;;
21878;SDS011;27908;42.708;23.278;2023-02-18T00:36:14;24.98;;;11.18;;
21878;SDS011;27908;42.708;23.278;2023-02-18T00:38:45;26.95;;;11.80;;
21878;SDS011;27908;42.708;23.278;2023-02-18T00:41:11;24.80;;;11.38;;
21878;SDS011;27908;42.708;23.278;2023-02-18T00:43:37;29.73;;;12.40;;
21878;SDS011;27908;42.708;23.278;2023-02-18T00:46:02;24.50;;;10.77;;
21878;SDS011;27908;42.708;23.278;2023-02-18T00:48:28;29.13;;;11.17;;
21878;SDS011;27908;42.708;23.278;2023-02-18T00:50:53;23.73;;;10.47;;
21878;SDS011;27908;42.708;23.278;2023-02-18T00:53:19;25.30;;;10.70;;
21878;SDS011;27908;42.708;23.278;2023-02-18T00:55:46;25.67;;;11.03;;
21878;SDS011;27908;42.708;23.278;2023-02-18T00:58:12;28.30;;;10.45;;
21878;SDS011;27908;42.708;23.278;2023-02-18T01:00:38;28.85;;;11.70;;
21878;SDS011;27908;42.708;23.278;2023-02-18T01:03:04;26.90;;;11.03;;
21878;SDS011;27908;42.708;23.278;2023-02-18T01:05:34;23.95;;;9.77;;
21878;SDS011;27908;42.708;23.278;2023-02-18T01:08:00;22.27;;;9.73;;
21878;SDS011;27908;42.708;23.278;2023-02-18T01:10:26;19.40;;;9.20;;
21878;SDS011;27908;42.708;23.278;2023-02-18T01:12:51;28.08;;;10.20;;
21878;SDS011;27908;42.708;23.278;2023-02-18T01:15:17;26.70;;;9.77;;
21878;SDS011;27908;42.708;23.278;2023-02-18T01:17:43;24.23;;;9.65;;
21878;SDS011;27908;42.708;23.278;2023-02-18T01:20:09;24.88;;;10.23;;
21878;SDS011;27908;42.708;23.278;2023-02-18T01:22:35;25.38;;;10.73;;
21878;SDS011;27908;42.708;23.278;2023-02-18T01:25:01;24.30;;;10.57;;
21878;SDS011;27908;42.708;23.278;2023-02-18T01:27:26;23.33;;;9.57;;
21878;SDS011;27908;42.708;23.278;2023-02-18T01:29:52;20.27;;;8.98;;
21878;SDS011;27908;42.708;23.278;2023-02-18T01:32:17;22.80;;;10.10;;
21878;SDS011;27908;42.708;23.278;2023-02-18T01:34:43;23.13;;;10.07;;
21878;SDS011;27908;42.708;23.278;2023-02-18T01:37:08;21.35;;;8.98;;
21878;SDS011;27908;42.708;23.278;2023-02-18T01:39:34;24.07;;;10.47;;
21878;SDS011;27908;42.708;23.278;2023-02-18T01:41:59;24.23;;;9.47;;
21878;SDS011;27908;42.708;23.278;2023-02-18T01:44:25;30.13;;;11.27;;
21878;SDS011;27908;42.708;23.278;2023-02-18T01:46:52;31.67;;;12.98;;
21878;SDS011;27908;42.708;23.278;2023-02-18T01:49:19;25.20;;;10.27;;
21878;SDS011;27908;42.708;23.278;2023-02-18T01:51:49;32.75;;;11.18;;
21878;SDS011;27908;42.708;23.278;2023-02-18T01:54:20;23.38;;;10.15;;
21878;SDS011;27908;42.708;23.278;2023-02-18T01:57:02;24.90;;;10.70;;
21878;SDS011;27908;42.708;23.278;2023-02-18T01:59:31;29.30;;;11.95;;
21878;SDS011;27908;42.708;23.278;2023-02-18T02:02:01;38.05;;;14.68;;
21878;SDS011;27908;42.708;23.278;2023-02-18T02:04:28;34.85;;;13.65;;
21878;SDS011;27908;42.708;23.278;2023-02-18T02:06:53;28.05;;;11.98;;
21878;SDS011;27908;42.708;23.278;2023-02-18T02:09:19;26.93;;;11.07;;
21878;SDS011;27908;42.708;23.278;2023-02-18T02:39:22;23.40;;;9.60;;
21878;SDS011;27908;42.708;23.278;2023-02-18T02:42:10;18.40;;;8.27;;
21878;SDS011;27908;42.708;23.278;2023-02-18T02:45:08;20.48;;;9.02;;
21878;SDS011;27908;42.708;23.278;2023-02-18T02:50:41;17.83;;;7.50;;
21878;SDS011;27908;42.708;23.278;2023-02-18T02:53:15;17.50;;;6.05;;
21878;SDS011;27908;42.708;23.278;2023-02-18T02:55:47;18.05;;;8.05;;
21878;SDS011;27908;42.708;23.278;2023-02-18T02:58:16;17.63;;;7.33;;
21878;SDS011;27908;42.708;23.278;2023-02-18T03:17:29;19.75;;;8.15;;
21878;SDS011;27908;42.708;23.278;2023-02-18T03:23:00;18.25;;;6.97;;
21878;SDS011;27908;42.708;23.278;2023-02-18T03:25:31;19.03;;;7.57;;
21878;SDS011;27908;42.708;23.278;2023-02-18T03:28:00;26.65;;;7.75;;
21878;SDS011;27908;42.708;23.278;2023-02-18T03:30:31;21.60;;;8.25;;
21878;SDS011;27908;42.708;23.278;2023-02-18T03:33:17;24.27;;;9.20;;
21878;SDS011;27908;42.708;23.278;2023-02-18T03:35:49;21.42;;;8.90;;
21878;SDS011;27908;42.708;23.278;2023-02-18T03:40:55;19.20;;;8.95;;
21878;SDS011;27908;42.708;23.278;2023-02-18T03:43:21;19.48;;;8.55;;
21878;SDS011;27908;42.708;23.278;2023-02-18T03:45:47;24.20;;;9.38;;
21878;SDS011;27908;42.708;23.278;2023-02-18T03:48:13;21.00;;;8.80;;
21878;SDS011;27908;42.708;23.278;2023-02-18T03:50:38;20.53;;;8.67;;
21878;SDS011;27908;42.708;23.278;2023-02-18T03:53:03;24.80;;;10.30;;
21878;SDS011;27908;42.708;23.278;2023-02-18T03:55:29;22.83;;;9.07;;
21878;SDS011;27908;42.708;23.278;2023-02-18T03:57:54;22.05;;;9.30;;
21878;SDS011;27908;42.708;23.278;2023-02-18T04:00:20;17.87;;;8.20;;
21878;SDS011;27908;42.708;23.278;2023-02-18T04:02:45;23.00;;;8.43;;
21878;SDS011;27908;42.708;23.278;2023-02-18T04:05:11;28.90;;;9.38;;
21878;SDS011;27908;42.708;23.278;2023-02-18T04:07:37;27.95;;;11.15;;
21878;SDS011;27908;42.708;23.278;2023-02-18T04:10:03;26.15;;;11.27;;
21878;SDS011;27908;42.708;23.278;2023-02-18T04:12:30;35.45;;;13.93;;
21878;SDS011;27908;42.708;23.278;2023-02-18T04:14:55;36.37;;;16.03;;
21878;SDS011;27908;42.708;23.278;2023-02-18T04:17:21;41.87;;;17.57;;
21878;SDS011;27908;42.708;23.278;2023-02-18T04:19:46;41.13;;;20.00;;
21878;SDS011;27908;42.708;23.278;2023-02-18T04:22:11;45.45;;;19.45;;
21878;SDS011;27908;42.708;23.278;2023-02-18T04:24:37;51.07;;;20.20;;
21878;SDS011;27908;42.708;23.278;2023-02-18T04:27:02;42.50;;;20.47;;
21878;SDS011;27908;42.708;23.278;2023-02-18T04:29:28;44.70;;;19.65;;
21878;SDS011;27908;42.708;23.278;2023-02-18T04:31:53;41.97;;;19.03;;
21878;SDS011;27908;42.708;23.278;2023-02-18T04:34:19;46.93;;;20.97;;
21878;SDS011;27908;42.708;23.278;2023-02-18T04:36:44;49.37;;;21.60;;
21878;SDS011;27908;42.708;23.278;2023-02-18T04:39:10;49.22;;;21.55;;
21878;SDS011;27908;42.708;23.278;2023-02-18T04:41:35;41.20;;;18.40;;
21878;SDS011;27908;42.708;23.278;2023-02-18T04:44:01;42.30;;;18.47;;
21878;SDS011;27908;42.708;23.278;2023-02-18T04:46:26;43.20;;;20.63;;
21878;SDS011;27908;42.708;23.278;2023-02-18T04:48:52;53.97;;;20.70;;
21878;SDS011;27908;42.708;23.278;2023-02-18T04:51:18;47.40;;;20.90;;
21878;SDS011;27908;42.708;23.278;2023-02-18T04:53:43;34.00;;;16.60;;
21878;SDS011;27908;42.708;23.278;2023-02-18T04:56:10;30.23;;;12.27;;
21878;SDS011;27908;42.708;23.278;2023-02-18T04:58:35;22.83;;;9.37;;
21878;SDS011;27908;42.708;23.278;2023-02-18T05:01:01;24.17;;;11.73;;
21878;SDS011;27908;42.708;23.278;2023-02-18T05:03:28;26.50;;;12.00;;
21878;SDS011;27908;42.708;23.278;2023-02-18T05:05:54;32.67;;;15.38;;
21878;SDS011;27908;42.708;23.278;2023-02-18T05:08:20;30.57;;;15.43;;
21878;SDS011;27908;42.708;23.278;2023-02-18T05:10:45;29.35;;;12.30;;
21878;SDS011;27908;42.708;23.278;2023-02-18T05:13:11;32.17;;;14.90;;
21878;SDS011;27908;42.708;23.278;2023-02-18T05:15:36;34.13;;;14.70;;
21878;SDS011;27908;42.708;23.278;2023-02-18T05:18:02;31.50;;;15.27;;
21878;SDS011;27908;42.708;23.278;2023-02-18T05:20:27;42.35;;;17.70;;
21878;SDS011;27908;42.708;23.278;2023-02-18T05:22:53;36.80;;;15.10;;
21878;SDS011;27908;42.708;23.278;2023-02-18T05:25:18;36.25;;;15.75;;
21878;SDS011;27908;42.708;23.278;2023-02-18T05:27:44;31.33;;;14.45;;
21878;SDS011;27908;42.708;23.278;2023-02-18T05:30:09;38.70;;;16.30;;
21878;SDS011;27908;42.708;23.278;2023-02-18T05:32:35;42.73;;;18.97;;
21878;SDS011;27908;42.708;23.278;2023-02-18T05:35:00;42.78;;;19.05;;
21878;SDS011;27908;42.708;23.278;2023-02-18T05:37:26;49.23;;;19.80;;
21878;SDS011;27908;42.708;23.278;2023-02-18T05:39:51;52.53;;;25.87;;
21878;SDS011;27908;42.708;23.278;2023-02-18T05:42:17;52.50;;;23.57;;
21878;SDS011;27908;42.708;23.278;2023-02-18T05:44:42;55.78;;;24.08;;
21878;SDS011;27908;42.708;23.278;2023-02-18T05:47:09;58.80;;;23.60;;
21878;SDS011;27908;42.708;23.278;2023-02-18T05:49:36;57.28;;;24.23;;
21878;SDS011;27908;42.708;23.278;2023-02-18T05:52:02;52.72;;;22.60;;
21878;SDS011;27908;42.708;23.278;2023-02-18T05:54:28;39.88;;;17.27;;
21878;SDS011;27908;42.708;23.278;2023-02-18T05:56:53;41.67;;;18.60;;
21878;SDS011;27908;42.708;23.278;2023-02-18T05:59:19;41.88;;;19.48;;
21878;SDS011;27908;42.708;23.278;2023-02-18T06:01:45;44.20;;;20.37;;
21878;SDS011;27908;42.708;23.278;2023-02-18T06:04:11;42.83;;;18.30;;
21878;SDS011;27908;42.708;23.278;2023-02-18T06:06:37;43.20;;;18.87;;
21878;SDS011;27908;42.708;23.278;2023-02-18T06:09:03;42.88;;;19.52;;
21878;SDS011;27908;42.708;23.278;2023-02-18T06:11:29;48.50;;;20.13;;
21878;SDS011;27908;42.708;23.278;2023-02-18T06:13:55;49.45;;;22.58;;
21878;SDS011;27908;42.708;23.278;2023-02-18T06:16:20;56.33;;;22.40;;
21878;SDS011;27908;42.708;23.278;2023-02-18T06:18:45;48.77;;;22.10;;
21878;SDS011;27908;42.708;23.278;2023-02-18T06:21:11;46.90;;;20.90;;
21878;SDS011;27908;42.708;23.278;2023-02-18T06:23:36;57.00;;;27.67;;
21878;SDS011;27908;42.708;23.278;2023-02-18T06:26:02;44.10;;;20.25;;
21878;SDS011;27908;42.708;23.278;2023-02-18T06:28:27;42.53;;;19.97;;
21878;SDS011;27908;42.708;23.278;2023-02-18T06:30:52;47.63;;;21.63;;
21878;SDS011;27908;42.708;23.278;2023-02-18T06:33:18;48.27;;;22.03;;
21878;SDS011;27908;42.708;23.278;2023-02-18T06:38:37;59.00;;;25.38;;
21878;SDS011;27908;42.708;23.278;2023-02-18T06:41:06;59.80;;;26.42;;
21878;SDS011;27908;42.708;23.278;2023-02-18T06:43:33;57.08;;;24.73;;
21878;SDS011;27908;42.708;23.278;2023-02-18T06:45:58;74.22;;;27.63;;
21878;SDS011;27908;42.708;23.278;2023-02-18T06:48:24;61.60;;;28.60;;
21878;SDS011;27908;42.708;23.278;2023-02-18T06:50:49;63.87;;;28.00;;
21878;SDS011;27908;42.708;23.278;2023-02-18T06:53:15;58.50;;;28.05;;
21878;SDS011;27908;42.708;23.278;2023-02-18T06:55:43;64.82;;;29.38;;
21878;SDS011;27908;42.708;23.278;2023-02-18T06:58:09;67.20;;;27.33;;
21878;SDS011;27908;42.708;23.278;2023-02-18T07:00:35;66.90;;;27.88;;
21878;SDS011;27908;42.708;23.278;2023-02-18T07:03:00;60.60;;;26.70;;
21878;SDS011;27908;42.708;23.278;2023-02-18T07:05:26;54.10;;;22.93;;
21878;SDS011;27908;42.708;23.278;2023-02-18T07:07:52;55.88;;;23.73;;
21878;SDS011;27908;42.708;23.278;2023-02-18T07:10:17;65.57;;;24.90;;
21878;SDS011;27908;42.708;23.278;2023-02-18T07:12:43;52.80;;;24.17;;
21878;SDS011;27908;42.708;23.278;2023-02-18T07:15:08;55.83;;;23.33;;
21878;SDS011;27908;42.708;23.278;2023-02-18T07:17:34;47.50;;;19.48;;
21878;SDS011;27908;42.708;23.278;2023-02-18T07:20:00;37.13;;;17.57;;
21878;SDS011;27908;42.708;23.278;2023-02-18T07:22:25;49.67;;;16.40;;
21878;SDS011;27908;42.708;23.278;2023-02-18T07:24:51;36.50;;;16.60;;
21878;SDS011;27908;42.708;23.278;2023-02-18T07:27:17;39.90;;;16.48;;
21878;SDS011;27908;42.708;23.278;2023-02-18T07:29:43;37.97;;;15.65;;
21878;SDS011;27908;42.708;23.278;2023-02-18T07:32:13;41.33;;;17.33;;
21878;SDS011;27908;42.708;23.278;2023-02-18T07:34:39;43.63;;;17.48;;
21878;SDS011;27908;42.708;23.278;2023-02-18T07:37:05;36.30;;;16.40;;
21878;SDS011;27908;42.708;23.278;2023-02-18T07:39:38;42.85;;;17.50;;
21878;SDS011;27908;42.708;23.278;2023-02-18T07:42:04;42.07;;;16.10;;
21878;SDS011;27908;42.708;23.278;2023-02-18T07:44:30;30.13;;;15.10;;
21878;SDS011;27908;42.708;23.278;2023-02-18T07:46:55;36.13;;;16.00;;
21878;SDS011;27908;42.708;23.278;2023-02-18T07:49:21;33.83;;;15.63;;
21878;SDS011;27908;42.708;23.278;2023-02-18T07:51:47;39.08;;;17.30;;
21878;SDS011;27908;42.708;23.278;2023-02-18T07:54:13;36.42;;;15.88;;
21878;SDS011;27908;42.708;23.278;2023-02-18T07:56:38;39.10;;;16.37;;
21878;SDS011;27908;42.708;23.278;2023-02-18T07:59:04;33.55;;;15.73;;
21878;SDS011;27908;42.708;23.278;2023-02-18T08:01:30;38.03;;;18.30;;
21878;SDS011;27908;42.708;23.278;2023-02-18T08:03:55;36.07;;;15.60;;
21878;SDS011;27908;42.708;23.278;2023-02-18T08:06:21;37.87;;;17.17;;
21878;SDS011;27908;42.708;23.278;2023-02-18T08:08:51;36.28;;;15.73;;
21878;SDS011;27908;42.708;23.278;2023-02-18T08:11:17;36.17;;;15.70;;
21878;SDS011;27908;42.708;23.278;2023-02-18T08:13:42;33.20;;;14.50;;
21878;SDS011;27908;42.708;23.278;2023-02-18T08:16:08;33.80;;;13.47;;
21878;SDS011;27908;42.708;23.278;2023-02-18T08:18:34;32.53;;;13.45;;
21878;SDS011;27908;42.708;23.278;2023-02-18T08:20:59;30.80;;;13.37;;
21878;SDS011;27908;42.708;23.278;2023-02-18T08:23:25;35.10;;;13.80;;
21878;SDS011;27908;42.708;23.278;2023-02-18T08:25:51;37.00;;;15.75;;
21878;SDS011;27908;42.708;23.278;2023-02-18T08:28:18;30.17;;;15.18;;
21878;SDS011;27908;42.708;23.278;2023-02-18T08:30:46;33.83;;;17.58;;
21878;SDS011;27908;42.708;23.278;2023-02-18T08:33:13;35.97;;;15.80;;
21878;SDS011;27908;42.708;23.278;2023-02-18T08:35:38;34.85;;;15.90;;
21878;SDS011;27908;42.708;23.278;2023-02-18T08:38:04;39.30;;;17.40;;
21878;SDS011;27908;42.708;23.278;2023-02-18T08:40:30;38.70;;;17.23;;
21878;SDS011;27908;42.708;23.278;2023-02-18T08:42:55;42.03;;;18.60;;
21878;SDS011;27908;42.708;23.278;2023-02-18T08:45:21;38.83;;;17.60;;
21878;SDS011;27908;42.708;23.278;2023-02-18T08:47:46;33.90;;;17.38;;
21878;SDS011;27908;42.708;23.278;2023-02-18T08:50:13;42.53;;;18.70;;
21878;SDS011;27908;42.708;23.278;2023-02-18T08:52:38;31.05;;;12.18;;
21878;SDS011;27908;42.708;23.278;2023-02-18T08:55:04;23.83;;;9.30;;
21878;SDS011;27908;42.708;23.278;2023-02-18T08:57:30;20.00;;;8.27;;
21878;SDS011;27908;42.708;23.278;2023-02-18T08:59:55;21.63;;;6.57;;
21878;SDS011;27908;42.708;23.278;2023-02-18T09:02:21;17.40;;;6.50;;
21878;SDS011;27908;42.708;23.278;2023-02-18T09:04:46;14.93;;;6.77;;
21878;SDS011;27908;42.708;23.278;2023-02-18T09:07:12;15.77;;;6.70;;
21878;SDS011;27908;42.708;23.278;2023-02-18T09:09:37;14.80;;;5.77;;
21878;SDS011;27908;42.708;23.278;2023-02-18T09:12:04;18.20;;;6.53;;
21878;SDS011;27908;42.708;23.278;2023-02-18T09:14:29;15.18;;;6.05;;
21878;SDS011;27908;42.708;23.278;2023-02-18T09:16:55;15.47;;;6.57;;
21878;SDS011;27908;42.708;23.278;2023-02-18T09:19:22;17.00;;;6.40;;
21878;SDS011;27908;42.708;23.278;2023-02-18T09:21:48;14.83;;;6.13;;
21878;SDS011;27908;42.708;23.278;2023-02-18T09:24:13;14.25;;;6.53;;
21878;SDS011;27908;42.708;23.278;2023-02-18T09:26:38;23.67;;;6.97;;
21878;SDS011;27908;42.708;23.278;2023-02-18T09:29:04;15.57;;;7.03;;
21878;SDS011;27908;42.708;23.278;2023-02-18T09:31:30;20.73;;;7.67;;
21878;SDS011;27908;42.708;23.278;2023-02-18T09:33:56;19.43;;;6.63;;
21878;SDS011;27908;42.708;23.278;2023-02-18T09:36:23;16.15;;;6.40;;
21878;SDS011;27908;42.708;23.278;2023-02-18T09:38:49;17.83;;;6.57;;
21878;SDS011;27908;42.708;23.278;2023-02-18T09:43:59;16.38;;;7.32;;
21878;SDS011;27908;42.708;23.278;2023-02-18T09:46:31;15.23;;;5.70;;
21878;SDS011;27908;42.708;23.278;2023-02-18T09:49:01;17.40;;;6.32;;
21878;SDS011;27908;42.708;23.278;2023-02-18T09:51:28;13.35;;;5.93;;
21878;SDS011;27908;42.708;23.278;2023-02-18T09:53:54;12.87;;;5.40;;
21878;SDS011;27908;42.708;23.278;2023-02-18T09:56:22;16.08;;;5.00;;
21878;SDS011;27908;42.708;23.278;2023-02-18T09:58:56;15.18;;;5.15;;
21878;SDS011;27908;42.708;23.278;2023-02-18T10:01:36;12.95;;;4.80;;
21878;SDS011;27908;42.708;23.278;2023-02-18T10:04:26;13.30;;;5.07;;
21878;SDS011;27908;42.708;23.278;2023-02-18T10:06:56;17.05;;;4.70;;
21878;SDS011;27908;42.708;23.278;2023-02-18T10:09:29;10.40;;;4.50;;
21878;SDS011;27908;42.708;23.278;2023-02-18T10:12:07;14.25;;;5.95;;
21878;SDS011;27908;42.708;23.278;2023-02-18T10:14:48;13.30;;;5.50;;
21878;SDS011;27908;42.708;23.278;2023-02-18T10:17:18;13.03;;;4.67;;
21878;SDS011;27908;42.708;23.278;2023-02-18T10:19:47;11.77;;;3.53;;
21878;SDS011;27908;42.708;23.278;2023-02-18T10:22:15;11.20;;;3.42;;
21878;SDS011;27908;42.708;23.278;2023-02-18T10:27:20;12.25;;;3.80;;
21878;SDS011;27908;42.708;23.278;2023-02-18T10:29:47;10.67;;;3.90;;
21878;SDS011;27908;42.708;23.278;2023-02-18T10:32:21;11.77;;;3.17;;
21878;SDS011;27908;42.708;23.278;2023-02-18T10:49:18;10.55;;;3.50;;
21878;SDS011;27908;42.708;23.278;2023-02-18T10:51:57;10.67;;;3.60;;
21878;SDS011;27908;42.708;23.278;2023-02-18T10:54:26;9.75;;;3.40;;
21878;SDS011;27908;42.708;23.278;2023-02-18T10:57:17;7.68;;;2.70;;
21878;SDS011;27908;42.708;23.278;2023-02-18T10:59:53;11.60;;;3.38;;
21878;SDS011;27908;42.708;23.278;2023-02-18T11:02:23;10.02;;;3.60;;
21878;SDS011;27908;42.708;23.278;2023-02-18T11:04:50;8.07;;;2.80;;
21878;SDS011;27908;42.708;23.278;2023-02-18T11:07:22;10.82;;;2.95;;
21878;SDS011;27908;42.708;23.278;2023-02-18T11:09:51;8.73;;;3.50;;
21878;SDS011;27908;42.708;23.278;2023-02-18T11:12:23;8.77;;;3.25;;
21878;SDS011;27908;42.708;23.278;2023-02-18T11:17:52;9.00;;;2.83;;
21878;SDS011;27908;42.708;23.278;2023-02-18T11:20:26;11.57;;;4.00;;
21878;SDS011;27908;42.708;23.278;2023-02-18T11:34:41;10.88;;;4.30;;
21878;SDS011;27908;42.708;23.278;2023-02-18T11:50:21;12.07;;;3.90;;
21878;SDS011;27908;42.708;23.278;2023-02-18T11:59:47;8.52;;;3.50;;
21878;SDS011;27908;42.708;23.278;2023-02-18T12:05:59;14.20;;;5.10;;
21878;SDS011;27908;42.708;23.278;2023-02-18T12:11:41;8.95;;;3.47;;
21878;SDS011;27908;42.708;23.278;2023-02-18T12:14:27;10.38;;;3.88;;
21878;SDS011;27908;42.708;23.278;2023-02-18T12:36:10;8.80;;;3.43;;
21878;SDS011;27908;42.708;23.278;2023-02-18T12:38:53;15.07;;;4.00;;
21878;SDS011;27908;42.708;23.278;2023-02-18T13:12:13;13.02;;;4.30;;
21878;SDS011;27908;42.708;23.278;2023-02-18T13:14:52;10.45;;;4.00;;
21878;SDS011;27908;42.708;23.278;2023-02-18T13:17:28;14.70;;;7.20;;
21878;SDS011;27908;42.708;23.278;2023-02-18T13:19:59;9.52;;;3.60;;
21878;SDS011;27908;42.708;23.278;2023-02-18T13:22:31;10.17;;;4.33;;
21878;SDS011;27908;42.708;23.278;2023-02-18T13:24:57;9.32;;;3.88;;
21878;SDS011;27908;42.708;23.278;2023-02-18T13:27:37;9.23;;;3.60;;
21878;SDS011;27908;42.708;23.278;2023-02-18T13:33:03;10.80;;;4.10;;
21878;SDS011;27908;42.708;23.278;2023-02-18T13:35:42;10.13;;;3.80;;
21878;SDS011;27908;42.708;23.278;2023-02-18T13:41:16;14.80;;;5.20;;
21878;SDS011;27908;42.708;23.278;2023-02-18T13:43:43;11.55;;;3.63;;
21878;SDS011;27908;42.708;23.278;2023-02-18T13:46:15;11.63;;;4.87;;
21878;SDS011;27908;42.708;23.278;2023-02-18T13:51:09;10.57;;;4.20;;
21878;SDS011;27908;42.708;23.278;2023-02-18T13:53:37;16.08;;;4.22;;
21878;SDS011;27908;42.708;23.278;2023-02-18T13:58:42;11.43;;;3.45;;
21878;SDS011;27908;42.708;23.278;2023-02-18T14:01:13;13.63;;;3.90;;
21878;SDS011;27908;42.708;23.278;2023-02-18T14:08:47;10.35;;;4.20;;
21878;SDS011;27908;42.708;23.278;2023-02-18T14:13:39;9.90;;;3.20;;
21878;SDS011;27908;42.708;23.278;2023-02-18T14:16:08;9.27;;;3.30;;
21878;SDS011;27908;42.708;23.278;2023-02-18T14:24:03;10.23;;;4.15;;
21878;SDS011;27908;42.708;23.278;2023-02-18T14:26:35;11.23;;;4.78;;
21878;SDS011;27908;42.708;23.278;2023-02-18T14:29:04;25.67;;;8.90;;
21878;SDS011;27908;42.708;23.278;2023-02-18T14:31:50;12.38;;;4.55;;
21878;SDS011;27908;42.708;23.278;2023-02-18T14:45:52;10.07;;;4.13;;
21878;SDS011;27908;42.708;23.278;2023-02-18T14:51:43;14.18;;;4.57;;
21878;SDS011;27908;42.708;23.278;2023-02-18T14:54:13;16.35;;;5.50;;
21878;SDS011;27908;42.708;23.278;2023-02-18T14:57:03;9.47;;;3.93;;
21878;SDS011;27908;42.708;23.278;2023-02-18T14:59:36;13.65;;;4.82;;
21878;SDS011;27908;42.708;23.278;2023-02-18T15:02:22;10.77;;;4.70;;
21878;SDS011;27908;42.708;23.278;2023-02-18T15:04:51;11.27;;;4.00;;
21878;SDS011;27908;42.708;23.278;2023-02-18T15:07:18;12.40;;;4.75;;
21878;SDS011;27908;42.708;23.278;2023-02-18T15:09:46;11.67;;;4.80;;
21878;SDS011;27908;42.708;23.278;2023-02-18T15:12:15;10.07;;;3.83;;
21878;SDS011;27908;42.708;23.278;2023-02-18T15:14:44;14.07;;;6.63;;
21878;SDS011;27908;42.708;23.278;2023-02-18T15:17:30;17.25;;;8.57;;
21878;SDS011;27908;42.708;23.278;2023-02-18T15:19:56;10.98;;;4.18;;
21878;SDS011;27908;42.708;23.278;2023-02-18T15:22:25;13.03;;;5.73;;
21878;SDS011;27908;42.708;23.278;2023-02-18T15:24:54;14.77;;;5.93;;
21878;SDS011;27908;42.708;23.278;2023-02-18T15:27:22;13.52;;;5.80;;
21878;SDS011;27908;42.708;23.278;2023-02-18T15:29:50;35.03;;;18.77;;
21878;SDS011;27908;42.708;23.278;2023-02-18T15:32:21;16.10;;;7.55;;
21878;SDS011;27908;42.708;23.278;2023-02-18T15:34:51;11.90;;;4.03;;
21878;SDS011;27908;42.708;23.278;2023-02-18T15:37:22;10.95;;;4.05;;
21878;SDS011;27908;42.708;23.278;2023-02-18T15:39:47;14.00;;;4.20;;
21878;SDS011;27908;42.708;23.278;2023-02-18T15:44:49;11.07;;;5.40;;
21878;SDS011;27908;42.708;23.278;2023-02-18T15:47:16;12.85;;;4.65;;
21878;SDS011;27908;42.708;23.278;2023-02-18T15:49:47;12.57;;;4.97;;
21878;SDS011;27908;42.708;23.278;2023-02-18T15:52:22;11.02;;;4.20;;
21878;SDS011;27908;42.708;23.278;2023-02-18T15:55:08;18.40;;;9.13;;
21878;SDS011;27908;42.708;23.278;2023-02-18T15:57:38;19.95;;;7.72;;
21878;SDS011;27908;42.708;23.278;2023-02-18T16:00:13;14.50;;;6.75;;
21878;SDS011;27908;42.708;23.278;2023-02-18T16:02:48;12.93;;;5.68;;
21878;SDS011;27908;42.708;23.278;2023-02-18T16:05:26;23.60;;;10.43;;
21878;SDS011;27908;42.708;23.278;2023-02-18T16:08:05;14.57;;;6.90;;
21878;SDS011;27908;42.708;23.278;2023-02-18T16:10:38;23.77;;;11.60;;
21878;SDS011;27908;42.708;23.278;2023-02-18T16:13:12;13.68;;;5.78;;
21878;SDS011;27908;42.708;23.278;2023-02-18T16:15:40;14.30;;;5.53;;
21878;SDS011;27908;42.708;23.278;2023-02-18T16:18:18;12.35;;;5.68;;
21878;SDS011;27908;42.708;23.278;2023-02-18T16:21:21;17.07;;;7.67;;
21878;SDS011;27908;42.708;23.278;2023-02-18T16:23:53;22.25;;;10.80;;
21878;SDS011;27908;42.708;23.278;2023-02-18T16:26:28;22.27;;;10.85;;
21878;SDS011;27908;42.708;23.278;2023-02-18T16:29:19;15.73;;;5.88;;
21878;SDS011;27908;42.708;23.278;2023-02-18T16:31:47;13.55;;;5.53;;
21878;SDS011;27908;42.708;23.278;2023-02-18T16:34:13;15.47;;;6.30;;
21878;SDS011;27908;42.708;23.278;2023-02-18T16:36:38;14.67;;;5.30;;
21878;SDS011;27908;42.708;23.278;2023-02-18T16:39:27;13.88;;;6.28;;
21878;SDS011;27908;42.708;23.278;2023-02-18T16:41:57;11.23;;;5.68;;
21878;SDS011;27908;42.708;23.278;2023-02-18T16:44:22;18.20;;;6.43;;
21878;SDS011;27908;42.708;23.278;2023-02-18T16:46:48;14.63;;;6.50;;
21878;SDS011;27908;42.708;23.278;2023-02-18T16:49:13;12.57;;;5.28;;
21878;SDS011;27908;42.708;23.278;2023-02-18T16:51:39;14.20;;;5.70;;
21878;SDS011;27908;42.708;23.278;2023-02-18T16:54:09;17.13;;;7.72;;
21878;SDS011;27908;42.708;23.278;2023-02-18T16:56:36;22.30;;;8.15;;
21878;SDS011;27908;42.708;23.278;2023-02-18T16:59:02;22.90;;;8.37;;
21878;SDS011;27908;42.708;23.278;2023-02-18T17:01:29;21.48;;;7.18;;
21878;SDS011;27908;42.708;23.278;2023-02-18T17:04:01;15.60;;;6.88;;
21878;SDS011;27908;42.708;23.278;2023-02-18T17:06:27;16.70;;;6.97;;
21878;SDS011;27908;42.708;23.278;2023-02-18T17:08:52;16.23;;;6.30;;
21878;SDS011;27908;42.708;23.278;2023-02-18T17:11:22;16.25;;;6.95;;
21878;SDS011;27908;42.708;23.278;2023-02-18T17:13:51;18.38;;;7.30;;
21878;SDS011;27908;42.708;23.278;2023-02-18T17:16:18;24.90;;;9.30;;
21878;SDS011;27908;42.708;23.278;2023-02-18T17:18:45;21.25;;;8.57;;
21878;SDS011;27908;42.708;23.278;2023-02-18T17:21:14;23.45;;;10.55;;
21878;SDS011;27908;42.708;23.278;2023-02-18T17:23:42;23.45;;;10.27;;
21878;SDS011;27908;42.708;23.278;2023-02-18T17:26:20;43.35;;;25.27;;
21878;SDS011;27908;42.708;23.278;2023-02-18T17:28:49;26.07;;;11.60;;
21878;SDS011;27908;42.708;23.278;2023-02-18T17:31:17;26.73;;;9.90;;
21878;SDS011;27908;42.708;23.278;2023-02-18T17:33:50;25.67;;;11.73;;
21878;SDS011;27908;42.708;23.278;2023-02-18T17:36:17;21.73;;;9.63;;
21878;SDS011;27908;42.708;23.278;2023-02-18T17:38:43;20.90;;;9.30;;
21878;SDS011;27908;42.708;23.278;2023-02-18T17:41:09;23.15;;;9.13;;
21878;SDS011;27908;42.708;23.278;2023-02-18T17:43:36;23.70;;;9.27;;
21878;SDS011;27908;42.708;23.278;2023-02-18T17:46:02;20.10;;;7.17;;
21878;SDS011;27908;42.708;23.278;2023-02-18T17:48:28;19.45;;;7.85;;
21878;SDS011;27908;42.708;23.278;2023-02-18T17:50:54;16.20;;;7.10;;
21878;SDS011;27908;42.708;23.278;2023-02-18T17:53:20;20.03;;;7.53;;